Clintonville, WI

9:27 AM CST on December 14, 2017 (GMT -0600)
Clintonville Municipal

Weather History for KCLI - August, 2014

Change the Weather History Date:

Tuesday, August 26, 2014

  Actual Average Record
Temperature  
Mean Temperature 66 °F -  
Max Temperature 73 °F 78 °F 94 °F (1953)
Min Temperature 59 °F 55 °F 39 °F (1964)
Cooling Degree Days 1    
Growing Degree Days 16 (Base 50)    
Moisture  
Dew Point 56 °F    
Average Humidity 69    
Maximum Humidity 94    
Minimum Humidity 47    
Precipitation  
Precipitation 0.00 in - - ()
Sea Level Pressure  
Sea Level Pressure 30.08 in    
Wind  
Wind Speed 6 mph (WNW)    
Max Wind Speed 13 mph    
Max Gust Speed 17 mph    
Visibility 10 miles    
Events      
Averages and records for this station are not official NWS values.
T = Trace of Precipitation, MM = Missing Value Source: NWS Daily Summary

Daily Weather History Graph

Daily Weather History Graph

Search for Another Location

Airport or City:

Trip Planner

Search our weather history database for the weather conditions in past years. The results will help you decide how hot, cold, wet, or windy it might be!

Date:

Astronomy

Aug. 26, 2014 Rise Set
Actual Time 6:10 AM CDT 7:42 PM CDT
Civil Twilight 5:39 AM CDT 8:12 PM CDT
Nautical Twilight 5:02 AM CDT 8:49 PM CDT
Astronomical Twilight 4:22 AM CDT 9:29 PM CDT
Moon 7:15 AM CDT (8/26) 7:57 PM CDT (8/26)
Length of Visible Light 14h 32m
Length of Day
13h 31m
New Moon, 1% of the Moon is Illuminated
Aug 26
New Moon
Sep 2
First Quarter
Sep 8
Full
Sep 15
Last Quarter
Sep 24
New

Hourly Weather History & Observations

Time (CDT) Temp. Dew Point Humidity Pressure Visibility Wind Dir Wind Speed Gust Speed Precip Events Conditions
12:15 AM 71.6 °F 69.8 °F 94% 29.98 in 10.0 mi WSW 4.6 mph - N/A   Clear
12:35 AM 71.6 °F 69.8 °F 94% 29.99 in 10.0 mi West 3.5 mph - N/A   Clear
12:55 AM 71.6 °F 68.0 °F 88% 30.00 in 10.0 mi WNW 8.1 mph - N/A   Scattered Clouds
1:15 AM 71.6 °F 62.6 °F 73% 30.00 in 10.0 mi WNW 6.9 mph - N/A   Scattered Clouds
1:35 AM 69.8 °F 60.8 °F 73% 30.01 in 10.0 mi NW 10.4 mph - N/A   Clear
1:55 AM 69.8 °F 60.8 °F 73% 30.01 in 10.0 mi WNW 6.9 mph - N/A   Scattered Clouds
2:15 AM 68.0 °F 60.8 °F 78% 30.01 in 10.0 mi West 4.6 mph - N/A   Scattered Clouds
2:35 AM 68.0 °F 59.0 °F 73% 30.01 in 10.0 mi West 4.6 mph - N/A   Scattered Clouds
2:55 AM 64.4 °F 59.0 °F 83% 30.01 in 10.0 mi WNW 4.6 mph - N/A   Clear
3:15 AM 64.4 °F 59.0 °F 83% 30.01 in 10.0 mi NW 3.5 mph - N/A   Clear
3:35 AM 64.4 °F 59.0 °F 83% 30.01 in 10.0 mi NW 5.8 mph - N/A   Scattered Clouds
3:55 AM 64.4 °F 59.0 °F 83% 30.02 in 10.0 mi NW 5.8 mph - N/A   Scattered Clouds
4:15 AM 64.4 °F 59.0 °F 83% 30.03 in 10.0 mi WNW 4.6 mph - N/A   Mostly Cloudy
4:35 AM 64.4 °F 59.0 °F 83% 30.04 in 10.0 mi WNW 4.6 mph - N/A   Mostly Cloudy
4:55 AM 64.4 °F 57.2 °F 77% 30.04 in 10.0 mi NW 4.6 mph - N/A   Mostly Cloudy
5:15 AM 64.4 °F 57.2 °F 77% 30.05 in 10.0 mi NW 3.5 mph - N/A   Overcast
5:35 AM 64.4 °F 57.2 °F 77% 30.05 in 10.0 mi Calm Calm - N/A   Overcast
5:55 AM 62.6 °F 59.0 °F 88% 30.06 in 10.0 mi West 3.5 mph - N/A   Mostly Cloudy
6:15 AM 62.6 °F 59.0 °F 88% 30.07 in 10.0 mi Calm Calm - N/A   Mostly Cloudy
6:35 AM 62.6 °F 59.0 °F 88% 30.08 in 10.0 mi West 4.6 mph - N/A   Overcast
6:55 AM 62.6 °F 59.0 °F 88% 30.08 in 10.0 mi Calm Calm - N/A   Mostly Cloudy
7:15 AM 64.4 °F 59.0 °F 83% 30.09 in 10.0 mi West 4.6 mph - N/A   Mostly Cloudy
7:35 AM 64.4 °F 57.2 °F 77% 30.11 in 10.0 mi West 5.8 mph - N/A   Overcast
7:55 AM 64.4 °F 57.2 °F 77% 30.11 in 10.0 mi West 5.8 mph - N/A   Mostly Cloudy
8:15 AM 64.4 °F 55.4 °F 73% 30.13 in 10.0 mi NW 6.9 mph - N/A   Mostly Cloudy
8:55 AM 64.4 °F 53.6 °F 68% 30.13 in 10.0 mi NNW 4.6 mph - N/A   Mostly Cloudy
9:55 AM 64.4 °F 51.8 °F 64% 30.13 in 10.0 mi NW 11.5 mph 17.3 mph N/A   Scattered Clouds
10:15 AM 66.2 °F 51.8 °F 60% 30.13 in 10.0 mi NW 11.5 mph - N/A   Clear
10:35 AM 66.2 °F 51.8 °F 60% 30.12 in 10.0 mi WNW 10.4 mph - N/A   Scattered Clouds
10:55 AM 66.2 °F 51.8 °F 60% 30.12 in 10.0 mi NW 12.7 mph - N/A   Clear
11:15 AM 64.4 °F 51.8 °F 64% 30.12 in 10.0 mi WNW 5.8 mph - N/A   Clear
11:35 AM 68.0 °F 51.8 °F 56% 30.12 in 10.0 mi NW 11.5 mph - N/A   Clear
11:55 AM 68.0 °F 51.8 °F 56% 30.11 in 10.0 mi NW 9.2 mph - N/A   Clear
12:15 PM 68.0 °F 51.8 °F 56% 30.10 in 10.0 mi NNW 8.1 mph - N/A   Clear
12:35 PM 69.8 °F 53.6 °F 56% 30.08 in 10.0 mi NNW 8.1 mph - N/A   Clear
12:55 PM 69.8 °F 53.6 °F 56% 30.06 in 10.0 mi North 9.2 mph - N/A   Clear
1:15 PM 71.6 °F 51.8 °F 50% 30.09 in 10.0 mi NW 3.5 mph 9.2 mph N/A   Clear
1:35 PM 71.6 °F 51.8 °F 50% 30.09 in 10.0 mi North 8.1 mph - N/A   Clear
1:55 PM 71.6 °F 53.6 °F 53% 30.10 in 10.0 mi NNW 6.9 mph - N/A   Clear
2:15 PM 71.6 °F 51.8 °F 50% 30.10 in 10.0 mi NNW 3.5 mph - N/A   Clear
2:35 PM 71.6 °F 53.6 °F 53% 30.09 in 10.0 mi NNW 6.9 mph - N/A   Clear
2:55 PM 71.6 °F 53.6 °F 53% 30.10 in 10.0 mi West 5.8 mph - N/A   Clear
3:15 PM 73.4 °F 53.6 °F 50% 30.09 in 10.0 mi NW 8.1 mph - N/A   Clear
3:35 PM 73.4 °F 51.8 °F 47% 30.09 in 10.0 mi WNW 6.9 mph - N/A   Clear
3:55 PM 71.6 °F 51.8 °F 50% 30.09 in 10.0 mi West 4.6 mph - N/A   Clear
4:15 PM 73.4 °F 51.8 °F 47% 30.10 in 10.0 mi NW 6.9 mph - N/A   Clear
4:35 PM 71.6 °F 51.8 °F 50% 30.10 in 10.0 mi West 8.1 mph - N/A   Clear
4:55 PM 71.6 °F 53.6 °F 53% 30.11 in 10.0 mi WNW 9.2 mph - N/A   Clear
5:15 PM 71.6 °F 51.8 °F 50% 30.10 in 10.0 mi WNW 9.2 mph - N/A   Clear
5:35 PM 71.6 °F 51.8 °F 50% 30.10 in 10.0 mi WNW 8.1 mph - N/A   Clear
5:55 PM 71.6 °F 53.6 °F 53% 30.10 in 10.0 mi West 8.1 mph - N/A   Clear
6:15 PM 71.6 °F 53.6 °F 53% 30.10 in 10.0 mi WNW 5.8 mph - N/A   Clear
6:35 PM 71.6 °F 53.6 °F 53% 30.10 in 10.0 mi West 6.9 mph - N/A   Clear
6:55 PM 69.8 °F 53.6 °F 56% 30.10 in 10.0 mi NW 6.9 mph - N/A   Clear
7:15 PM 69.8 °F 53.6 °F 56% 30.10 in 10.0 mi WNW 5.8 mph - N/A   Clear
7:35 PM 66.2 °F 53.6 °F 64% 30.11 in 10.0 mi WNW 4.6 mph - N/A   Clear
7:55 PM 66.2 °F 53.6 °F 64% 30.10 in 10.0 mi West 3.5 mph - N/A   Clear
8:15 PM 64.4 °F 53.6 °F 68% 30.11 in 10.0 mi WSW 3.5 mph - N/A   Clear
8:35 PM 62.6 °F 55.4 °F 77% 30.11 in 10.0 mi Calm Calm - N/A   Clear
8:55 PM 60.8 °F 55.4 °F 82% 30.11 in 10.0 mi Calm Calm - N/A   Clear
9:15 PM 59.0 °F 55.4 °F 88% 30.12 in 10.0 mi Calm Calm - N/A   Clear
9:35 PM 59.0 °F 55.4 °F 88% 30.12 in 10.0 mi WNW 3.5 mph - N/A   Clear
9:55 PM 60.8 °F 55.4 °F 82% 30.12 in 10.0 mi West 4.6 mph - N/A   Clear
10:15 PM 60.8 °F 55.4 °F 82% 30.12 in 10.0 mi WNW 4.6 mph - N/A   Clear
10:35 PM 60.8 °F 55.4 °F 82% 30.13 in 10.0 mi WNW 4.6 mph - N/A   Clear
10:55 PM 62.6 °F 55.4 °F 77% 30.12 in 10.0 mi Calm Calm - N/A   Clear
11:15 PM 62.6 °F 53.6 °F 72% 30.13 in 10.0 mi Calm Calm - N/A   Clear
11:35 PM 60.8 °F 53.6 °F 77% 30.13 in 10.0 mi Calm Calm - N/A   Clear
11:55 PM 60.8 °F 55.4 °F 82% 30.13 in 10.0 mi Calm Calm - N/A   Clear